Time;durP1;ratioP1;P1;durP2;ratioP2;P2;SDS_P1;SDS_P2;PMS_P1;PMS_P2;Temp;Humidity;BMP_temperature;BMP_pressure;BME280_temperature;BME280_humidity;BME280_pressure;Samples;Min_cycle;Max_cycle;Signal;HPM_P1;HPM_P2
2022/02/21 00:01:50;;;;;;;2.45;1.20;;;;;;;;;;5074965;28;20453;-73
2022/02/21 00:04:36;;;;;;;6.93;1.58;;;;;;;;;;5073401;28;20032;-73
2022/02/21 00:07:21;;;;;;;3.13;1.23;;;;;;;;;;5074911;28;20335;-73
2022/02/21 00:10:08;;;;;;;4.38;1.42;;;;;;;;;;5062173;28;20135;-73
2022/02/21 00:12:53;;;;;;;2.92;1.17;;;;;;;;;;5074435;28;20036;-75
2022/02/21 00:15:38;;;;;;;2.17;1.05;;;;;;;;;;5050983;28;20127;-64
2022/02/21 00:18:24;;;;;;;4.78;1.02;;;;;;;;;;5073187;28;20089;-68
2022/02/21 00:21:09;;;;;;;5.53;1.35;;;;;;;;;;5074957;28;20082;-69
2022/02/21 00:23:54;;;;;;;4.95;1.30;;;;;;;;;;5071707;28;20436;-67
2022/02/21 00:26:39;;;;;;;5.05;1.38;;;;;;;;;;5056357;28;20020;-66
2022/02/21 00:29:24;;;;;;;2.95;1.00;;;;;;;;;;5075130;28;20028;-68
2022/02/21 00:32:10;;;;;;;4.35;1.35;;;;;;;;;;5075095;28;20039;-71
2022/02/21 00:34:55;;;;;;;2.72;1.10;;;;;;;;;;5075136;28;20482;-67
2022/02/21 00:37:41;;;;;;;4.13;1.25;;;;;;;;;;5072232;28;20070;-68
2022/02/21 00:40:26;;;;;;;3.97;1.60;;;;;;;;;;5075235;28;20031;-66
2022/02/21 00:43:12;;;;;;;4.95;1.48;;;;;;;;;;5074532;28;20089;-67
2022/02/21 00:45:57;;;;;;;3.55;1.20;;;;;;;;;;5089364;28;20035;-65
2022/02/21 00:48:42;;;;;;;5.00;1.48;;;;;;;;;;5066444;28;20115;-70
2022/02/21 00:51:27;;;;;;;4.22;1.20;;;;;;;;;;5075079;28;20368;-72
2022/02/21 00:54:13;;;;;;;2.63;1.50;;;;;;;;;;5060101;28;20036;-71
2022/02/21 00:56:58;;;;;;;3.58;1.45;;;;;;;;;;5074516;28;20028;-71
2022/02/21 00:59:44;;;;;;;6.70;1.38;;;;;;;;;;5071007;28;20040;-69
2022/02/21 01:02:32;;;;;;;6.72;1.70;;;;;;;;;;5060533;28;20114;-71
2022/02/21 01:05:17;;;;;;;4.47;1.85;;;;;;;;;;5059769;28;20032;-72
2022/02/21 01:08:03;;;;;;;4.38;1.40;;;;;;;;;;5074455;28;20023;-63
2022/02/21 01:10:48;;;;;;;3.75;1.58;;;;;;;;;;5060965;28;20021;-70
2022/02/21 01:13:33;;;;;;;6.75;1.52;;;;;;;;;;5073472;28;20533;-70
2022/02/21 01:16:18;;;;;;;7.22;1.60;;;;;;;;;;5054676;28;20028;-70
2022/02/21 01:19:04;;;;;;;2.33;1.20;;;;;;;;;;5067534;28;20044;-70
2022/02/21 01:21:49;;;;;;;5.15;1.52;;;;;;;;;;5056784;28;20028;-70
2022/02/21 01:24:34;;;;;;;4.63;1.70;;;;;;;;;;5065496;28;20475;-73
2022/02/21 01:27:20;;;;;;;3.65;1.20;;;;;;;;;;5059923;28;20110;-72
2022/02/21 01:30:06;;;;;;;4.82;1.40;;;;;;;;;;5069969;28;20061;-64
2022/02/21 01:32:51;;;;;;;6.22;1.98;;;;;;;;;;5072706;28;20032;-62
2022/02/21 01:35:36;;;;;;;5.40;1.35;;;;;;;;;;5072682;28;20509;-63
2022/02/21 01:38:22;;;;;;;4.85;1.40;;;;;;;;;;5068034;28;20046;-63
2022/02/21 01:41:07;;;;;;;3.80;1.38;;;;;;;;;;5068925;28;20031;-63
2022/02/21 01:44:03;;;;;;;3.28;1.20;;;;;;;;;;5074041;28;20032;-71
2022/02/21 01:46:48;;;;;;;3.60;1.42;;;;;;;;;;5059408;28;20471;-70
2022/02/21 01:49:33;;;;;;;7.22;1.60;;;;;;;;;;5069610;28;20104;-70
2022/02/21 01:52:19;;;;;;;3.47;1.23;;;;;;;;;;5068310;28;20229;-71
2022/02/21 01:55:05;;;;;;;6.07;1.50;;;;;;;;;;5073380;28;20249;-70
2022/02/21 01:57:50;;;;;;;6.20;1.85;;;;;;;;;;5072914;28;20511;-71
2022/02/21 02:00:36;;;;;;;5.68;1.38;;;;;;;;;;5059499;28;20111;-70
2022/02/21 02:03:21;;;;;;;6.22;1.25;;;;;;;;;;5073589;28;20145;-68
2022/02/21 02:06:09;;;;;;;5.45;1.30;;;;;;;;;;5065705;28;20028;-63
2022/02/21 02:08:54;;;;;;;4.20;1.30;;;;;;;;;;5074107;28;20077;-65
2022/02/21 02:11:41;;;;;;;4.63;1.20;;;;;;;;;;5058355;28;20032;-62
2022/02/21 02:14:26;;;;;;;2.95;1.13;;;;;;;;;;5073735;28;20040;-64
2022/02/21 02:17:13;;;;;;;4.63;1.10;;;;;;;;;;5072790;28;20406;-64
2022/02/21 02:19:58;;;;;;;2.88;1.45;;;;;;;;;;5060932;28;20144;-68
2022/02/21 02:22:44;;;;;;;2.10;0.90;;;;;;;;;;5038451;28;20370;-65
2022/02/21 02:25:29;;;;;;;5.70;1.10;;;;;;;;;;5053128;28;20021;-66
2022/02/21 02:28:14;;;;;;;4.05;0.95;;;;;;;;;;5071117;28;20035;-67
2022/02/21 02:31:00;;;;;;;5.80;1.52;;;;;;;;;;5056967;28;20111;-69
2022/02/21 02:33:45;;;;;;;3.63;0.98;;;;;;;;;;5038388;28;20074;-69
2022/02/21 02:36:30;;;;;;;4.25;0.93;;;;;;;;;;5051235;28;20033;-69
2022/02/21 02:39:15;;;;;;;3.90;1.23;;;;;;;;;;5053710;28;20044;-72
2022/02/21 02:42:01;;;;;;;2.25;0.88;;;;;;;;;;5049238;28;20028;-64
2022/02/21 02:44:46;;;;;;;3.08;1.40;;;;;;;;;;5041285;28;20012;-65
2022/02/21 02:47:31;;;;;;;5.93;1.15;;;;;;;;;;5049830;28;20388;-65
2022/02/21 02:50:16;;;;;;;2.90;1.05;;;;;;;;;;5056575;28;20038;-64
2022/02/21 02:53:02;;;;;;;4.57;1.67;;;;;;;;;;5056427;28;20116;-64
2022/02/21 02:55:47;;;;;;;3.75;1.10;;;;;;;;;;5066775;28;20030;-64
2022/02/21 02:58:32;;;;;;;2.13;1.00;;;;;;;;;;5056033;28;20037;-72
2022/02/21 03:01:18;;;;;;;3.63;1.05;;;;;;;;;;5040098;28;20209;-68
2022/02/21 03:04:03;;;;;;;1.88;0.82;;;;;;;;;;5050138;28;20087;-63
2022/02/21 03:06:48;;;;;;;2.20;1.25;;;;;;;;;;5061509;28;20024;-63
2022/02/21 03:09:33;;;;;;;2.05;0.98;;;;;;;;;;5056690;28;20036;-63
2022/02/21 03:12:19;;;;;;;3.53;0.90;;;;;;;;;;5040855;28;20032;-66
2022/02/21 03:15:04;;;;;;;4.82;1.05;;;;;;;;;;5053780;28;20409;-70
2022/02/21 03:17:49;;;;;;;3.55;0.90;;;;;;;;;;5042284;28;20119;-67
2022/02/21 03:20:35;;;;;;;3.45;1.45;;;;;;;;;;5069582;28;20123;-71
2022/02/21 03:23:20;;;;;;;3.08;0.90;;;;;;;;;;5053629;28;20025;-71
2022/02/21 03:26:05;;;;;;;1.60;0.75;;;;;;;;;;5070002;28;20040;-72
2022/02/21 03:28:51;;;;;;;2.97;0.80;;;;;;;;;;5055676;28;20043;-70
2022/02/21 03:31:36;;;;;;;2.75;0.90;;;;;;;;;;5069786;28;20376;-69
2022/02/21 03:34:21;;;;;;;1.55;0.75;;;;;;;;;;5069107;28;20037;-65
2022/02/21 03:37:07;;;;;;;1.02;0.70;;;;;;;;;;5070003;28;20166;-74
2022/02/21 03:39:52;;;;;;;3.85;1.05;;;;;;;;;;5055432;28;20030;-71
2022/02/21 03:42:37;;;;;;;5.18;1.13;;;;;;;;;;5042146;28;20028;-71
2022/02/21 03:45:23;;;;;;;2.90;0.82;;;;;;;;;;5055831;28;20040;-74
2022/02/21 03:48:08;;;;;;;4.03;0.90;;;;;;;;;;5041841;28;20109;-71
2022/02/21 03:50:53;;;;;;;3.47;0.70;;;;;;;;;;5068732;28;20498;-71
2022/02/21 03:53:38;;;;;;;1.92;0.70;;;;;;;;;;5052712;28;20040;-67
2022/02/21 03:56:24;;;;;;;1.55;0.55;;;;;;;;;;5054519;28;20098;-76
2022/02/21 03:59:09;;;;;;;3.28;0.98;;;;;;;;;;5056210;28;20127;-72
2022/02/21 04:01:54;;;;;;;1.08;0.65;;;;;;;;;;5054026;28;20021;-74
2022/02/21 04:04:39;;;;;;;2.35;0.90;;;;;;;;;;5055875;28;20028;-73
2022/02/21 04:07:25;;;;;;;0.88;0.60;;;;;;;;;;5055199;28;20113;-74
2022/02/21 04:10:11;;;;;;;1.27;0.65;;;;;;;;;;5055175;28;20295;-75
2022/02/21 04:12:56;;;;;;;2.70;0.70;;;;;;;;;;5069129;28;20036;-69
2022/02/21 04:15:41;;;;;;;1.05;0.70;;;;;;;;;;5048301;28;20108;-75
2022/02/21 04:18:26;;;;;;;1.15;0.57;;;;;;;;;;5071659;28;20048;-77
2022/02/21 04:21:12;;;;;;;1.85;0.70;;;;;;;;;;5075045;28;20323;-76
2022/02/21 04:23:57;;;;;;;3.08;1.40;;;;;;;;;;5061488;28;20035;-74
2022/02/21 04:26:42;;;;;;;3.20;1.08;;;;;;;;;;5053474;28;20036;-75
2022/02/21 04:29:28;;;;;;;2.03;0.80;;;;;;;;;;5061562;28;20032;-64
2022/02/21 04:32:13;;;;;;;3.90;1.02;;;;;;;;;;5073460;28;20475;-63
2022/02/21 04:34:58;;;;;;;4.65;1.20;;;;;;;;;;5074862;28;20047;-64
2022/02/21 04:37:44;;;;;;;5.05;1.10;;;;;;;;;;5074258;28;20020;-65
2022/02/21 04:40:30;;;;;;;3.90;1.27;;;;;;;;;;5074779;28;20040;-64
2022/02/21 04:43:15;;;;;;;4.65;1.60;;;;;;;;;;5073679;28;20135;-67
2022/02/21 04:46:01;;;;;;;7.65;1.30;;;;;;;;;;5048344;28;20039;-66
2022/02/21 04:48:46;;;;;;;5.80;1.58;;;;;;;;;;5074631;28;20032;-66
2022/02/21 04:51:31;;;;;;;4.35;1.55;;;;;;;;;;5074838;28;20024;-67
2022/02/21 04:54:17;;;;;;;7.15;1.70;;;;;;;;;;5074469;28;20058;-67
2022/02/21 04:57:02;;;;;;;3.30;1.10;;;;;;;;;;5073852;28;20151;-68
2022/02/21 04:59:47;;;;;;;6.20;1.40;;;;;;;;;;5060850;28;20157;-67
2022/02/21 05:02:33;;;;;;;5.22;1.52;;;;;;;;;;5073885;28;20086;-67
2022/02/21 05:05:18;;;;;;;5.90;1.52;;;;;;;;;;5074496;28;20036;-67
2022/02/21 05:08:03;;;;;;;6.45;1.67;;;;;;;;;;5073243;28;20026;-62
2022/02/21 05:10:48;;;;;;;3.83;1.42;;;;;;;;;;5068655;28;20037;-71
2022/02/21 05:13:37;;;;;;;6.35;1.48;;;;;;;;;;5070573;28;20507;-68
2022/02/21 05:16:22;;;;;;;6.55;2.75;;;;;;;;;;5074351;28;20157;-66
2022/02/21 05:19:07;;;;;;;9.57;1.58;;;;;;;;;;5073315;28;20035;-67
2022/02/21 05:21:53;;;;;;;9.05;1.40;;;;;;;;;;5087750;28;20051;-68
2022/02/21 05:24:38;;;;;;;6.65;1.80;;;;;;;;;;5073170;28;20027;-73
2022/02/21 05:27:24;;;;;;;5.22;1.88;;;;;;;;;;5060492;28;20032;-63
2022/02/21 05:30:13;;;;;;;5.38;1.80;;;;;;;;;;5070061;28;20118;-66
2022/02/21 05:32:58;;;;;;;8.77;1.73;;;;;;;;;;5073892;28;20043;-64
2022/02/21 05:35:43;;;;;;;8.35;1.70;;;;;;;;;;5067478;28;20480;-64
2022/02/21 05:38:28;;;;;;;8.35;2.42;;;;;;;;;;5073873;28;20044;-64
2022/02/21 05:41:14;;;;;;;7.63;1.88;;;;;;;;;;5072989;28;20099;-65
2022/02/21 05:44:00;;;;;;;7.75;2.03;;;;;;;;;;5073249;28;20049;-74
2022/02/21 05:46:45;;;;;;;14.40;2.97;;;;;;;;;;5073440;28;20031;-65
2022/02/21 05:49:32;;;;;;;11.20;2.33;;;;;;;;;;5072731;28;20519;-66
2022/02/21 05:52:17;;;;;;;13.18;3.40;;;;;;;;;;5059421;28;20039;-66
2022/02/21 05:55:02;;;;;;;13.00;3.22;;;;;;;;;;5073146;28;20118;-67
2022/02/21 05:57:47;;;;;;;11.00;3.00;;;;;;;;;;5065245;28;20028;-68
2022/02/21 06:00:33;;;;;;;8.75;2.13;;;;;;;;;;5071874;28;20036;-66
2022/02/21 06:03:18;;;;;;;9.90;2.40;;;;;;;;;;5071445;28;20035;-74
2022/02/21 06:06:03;;;;;;;6.95;1.90;;;;;;;;;;5071598;28;20438;-63
2022/02/21 06:08:48;;;;;;;15.38;2.42;;;;;;;;;;5068004;28;20123;-66
2022/02/21 06:11:34;;;;;;;11.95;2.70;;;;;;;;;;5068223;28;20497;-65
2022/02/21 06:14:20;;;;;;;10.73;1.95;;;;;;;;;;5073728;28;20028;-65
2022/02/21 06:17:06;;;;;;;12.00;2.50;;;;;;;;;;5071084;28;20024;-63
2022/02/21 06:19:51;;;;;;;10.18;2.55;;;;;;;;;;5075359;28;20451;-65
2022/02/21 06:22:36;;;;;;;12.30;3.28;;;;;;;;;;5077571;28;20107;-66
2022/02/21 06:25:22;;;;;;;14.00;2.50;;;;;;;;;;5068954;28;20475;-66
2022/02/21 06:28:07;;;;;;;12.32;2.60;;;;;;;;;;5057660;28;20528;-66
2022/02/21 06:30:53;;;;;;;13.23;2.95;;;;;;;;;;5063165;28;20032;-65
2022/02/21 06:33:38;;;;;;;12.40;2.67;;;;;;;;;;5076851;28;20438;-64
2022/02/21 06:36:23;;;;;;;8.45;2.33;;;;;;;;;;5070833;28;20624;-65
2022/02/21 06:39:08;;;;;;;8.70;2.63;;;;;;;;;;5069935;28;20047;-67
2022/02/21 06:41:54;;;;;;;8.63;2.10;;;;;;;;;;5075982;28;20019;-69
2022/02/21 06:44:39;;;;;;;14.88;2.83;;;;;;;;;;5076557;28;20024;-67
2022/02/21 06:47:24;;;;;;;14.15;2.65;;;;;;;;;;5073002;28;20146;-68
2022/02/21 06:50:10;;;;;;;9.35;2.55;;;;;;;;;;5067951;28;20035;-67
2022/02/21 06:52:55;;;;;;;12.63;2.75;;;;;;;;;;5061808;28;20467;-67
2022/02/21 06:55:40;;;;;;;9.52;2.65;;;;;;;;;;5048584;28;20115;-67
2022/02/21 06:58:26;;;;;;;12.85;3.55;;;;;;;;;;5068781;28;20029;-68
2022/02/21 07:01:11;;;;;;;11.20;2.90;;;;;;;;;;5061977;28;20035;-66
2022/02/21 07:03:56;;;;;;;10.90;2.60;;;;;;;;;;5076177;28;20375;-68
2022/02/21 07:06:41;;;;;;;12.68;3.15;;;;;;;;;;5069706;28;20059;-65
2022/02/21 07:09:27;;;;;;;15.57;2.90;;;;;;;;;;5063029;28;20020;-65
2022/02/21 07:12:12;;;;;;;16.38;2.72;;;;;;;;;;5063017;28;20408;-66
2022/02/21 07:14:57;;;;;;;12.50;3.35;;;;;;;;;;5061385;28;20024;-71
2022/02/21 07:17:42;;;;;;;10.80;2.83;;;;;;;;;;5064540;28;20669;-66
2022/02/21 07:20:28;;;;;;;16.20;3.65;;;;;;;;;;5073527;28;20051;-66
2022/02/21 07:23:13;;;;;;;12.07;2.60;;;;;;;;;;5066009;28;20043;-64
2022/02/21 07:25:58;;;;;;;11.73;2.95;;;;;;;;;;5064678;28;20094;-64
2022/02/21 07:28:44;;;;;;;10.93;2.40;;;;;;;;;;5067437;28;20628;-64
2022/02/21 07:31:29;;;;;;;12.68;2.60;;;;;;;;;;5056479;28;20043;-64
2022/02/21 07:34:14;;;;;;;11.82;2.70;;;;;;;;;;5067948;28;20106;-66
2022/02/21 07:37:00;;;;;;;9.98;2.65;;;;;;;;;;5060787;28;20199;-64
2022/02/21 07:39:45;;;;;;;14.93;2.90;;;;;;;;;;5062591;28;20161;-64
2022/02/21 07:42:30;;;;;;;12.10;2.47;;;;;;;;;;5065350;28;20028;-66
2022/02/21 07:45:19;;;;;;;12.48;3.25;;;;;;;;;;5069501;28;20195;-66
2022/02/21 07:48:04;;;;;;;14.63;3.90;;;;;;;;;;5073576;28;20472;-67
2022/02/21 07:50:54;;;;;;;11.70;2.70;;;;;;;;;;5081337;28;20032;-67
2022/02/21 07:53:39;;;;;;;15.00;4.32;;;;;;;;;;5063282;28;20101;-66
2022/02/21 07:56:24;;;;;;;15.70;4.43;;;;;;;;;;5077185;28;20032;-68
2022/02/21 07:59:09;;;;;;;16.95;4.35;;;;;;;;;;5073315;28;20060;-65
2022/02/21 08:01:55;;;;;;;13.85;2.58;;;;;;;;;;5049764;28;20025;-65
2022/02/21 08:04:40;;;;;;;12.05;3.28;;;;;;;;;;5065139;28;20032;-65
2022/02/21 08:07:25;;;;;;;11.98;2.90;;;;;;;;;;5071110;28;20109;-65
2022/02/21 08:10:11;;;;;;;17.77;3.55;;;;;;;;;;5069427;28;20070;-65
2022/02/21 08:12:56;;;;;;;10.93;2.70;;;;;;;;;;5065253;28;20100;-65
2022/02/21 08:15:41;;;;;;;12.45;2.95;;;;;;;;;;5066040;28;20032;-65
2022/02/21 08:18:27;;;;;;;16.80;3.95;;;;;;;;;;5065782;28;20024;-64
2022/02/21 08:21:12;;;;;;;18.58;3.20;;;;;;;;;;5060298;28;20495;-64
2022/02/21 08:23:57;;;;;;;16.02;3.55;;;;;;;;;;5090426;28;20044;-64
2022/02/21 08:26:42;;;;;;;17.17;3.35;;;;;;;;;;5051059;28;20435;-65
2022/02/21 08:29:28;;;;;;;13.40;2.97;;;;;;;;;;5062749;28;20024;-62
2022/02/21 08:32:13;;;;;;;14.57;3.67;;;;;;;;;;5069635;28;20114;-63
2022/02/21 08:34:58;;;;;;;13.05;4.10;;;;;;;;;;5066116;28;20134;-66
2022/02/21 08:37:44;;;;;;;11.05;3.35;;;;;;;;;;5065479;28;20400;-64
2022/02/21 08:40:29;;;;;;;13.20;2.70;;;;;;;;;;5064210;28;20089;-68
2022/02/21 08:43:15;;;;;;;12.35;3.25;;;;;;;;;;5067617;28;20464;-66
2022/02/21 08:46:00;;;;;;;12.38;4.20;;;;;;;;;;5068999;28;20463;-68
2022/02/21 08:48:45;;;;;;;14.80;3.00;;;;;;;;;;5065297;28;20114;-64
2022/02/21 08:51:31;;;;;;;16.70;4.32;;;;;;;;;;5066170;28;20404;-64
2022/02/21 08:54:19;;;;;;;13.02;3.30;;;;;;;;;;5070865;28;20039;-67
2022/02/21 08:57:05;;;;;;;17.08;3.75;;;;;;;;;;5067879;28;20600;-67
2022/02/21 08:59:50;;;;;;;9.70;3.00;;;;;;;;;;5062083;28;20040;-66
2022/02/21 09:02:35;;;;;;;16.15;4.07;;;;;;;;;;5065288;28;20028;-65
2022/02/21 09:05:25;;;;;;;13.73;3.00;;;;;;;;;;5065639;28;20043;-63
2022/02/21 09:08:10;;;;;;;11.07;3.25;;;;;;;;;;5064771;28;20115;-64
2022/02/21 09:10:55;;;;;;;9.63;3.03;;;;;;;;;;5070958;28;20073;-65
2022/02/21 09:13:40;;;;;;;19.08;4.65;;;;;;;;;;5064321;28;20498;-66
2022/02/21 09:16:25;;;;;;;16.27;3.50;;;;;;;;;;5065960;28;20375;-65
2022/02/21 09:19:11;;;;;;;10.82;2.80;;;;;;;;;;5046390;28;20141;-67
2022/02/21 09:21:56;;;;;;;9.63;2.63;;;;;;;;;;5048730;28;20028;-65
2022/02/21 09:24:41;;;;;;;15.10;3.00;;;;;;;;;;5051884;28;20020;-69
2022/02/21 09:27:26;;;;;;;11.60;2.55;;;;;;;;;;5037026;28;20064;-65
2022/02/21 09:30:12;;;;;;;9.02;2.78;;;;;;;;;;5051385;28;20607;-66
2022/02/21 09:32:57;;;;;;;11.43;3.33;;;;;;;;;;5049732;28;20040;-67
2022/02/21 09:35:43;;;;;;;10.23;3.08;;;;;;;;;;5039111;28;20114;-76
2022/02/21 09:38:28;;;;;;;12.05;3.03;;;;;;;;;;5037986;28;20111;-65
2022/02/21 09:41:13;;;;;;;11.13;2.63;;;;;;;;;;5040330;28;20033;-64
2022/02/21 09:43:58;;;;;;;10.68;2.63;;;;;;;;;;5049764;28;20111;-68
2022/02/21 09:46:46;;;;;;;9.38;3.17;;;;;;;;;;5040059;28;20051;-65
2022/02/21 09:49:31;;;;;;;8.55;2.60;;;;;;;;;;5044618;28;20020;-65
2022/02/21 09:52:17;;;;;;;11.82;3.20;;;;;;;;;;5048159;28;20043;-65
2022/02/21 09:55:02;;;;;;;8.98;2.78;;;;;;;;;;5028482;28;20144;-65
2022/02/21 09:57:47;;;;;;;11.57;3.13;;;;;;;;;;5044613;28;20110;-64
2022/02/21 10:00:33;;;;;;;8.43;2.70;;;;;;;;;;5041943;28;20229;-65
2022/02/21 10:03:34;;;;;;;10.80;2.80;;;;;;;;;;5046208;28;20028;-65
2022/02/21 10:06:20;;;;;;;10.55;2.58;;;;;;;;;;5042804;28;20600;-67
2022/02/21 10:09:10;;;;;;;10.15;4.45;;;;;;;;;;5046115;28;20029;-64
2022/02/21 10:11:58;;;;;;;9.20;3.22;;;;;;;;;;5043278;28;20025;-65
2022/02/21 10:14:43;;;;;;;9.95;3.17;;;;;;;;;;5028805;28;20033;-67
2022/02/21 10:17:29;;;;;;;8.80;3.05;;;;;;;;;;5027754;28;20040;-67
2022/02/21 10:20:15;;;;;;;11.73;3.30;;;;;;;;;;5060160;28;20072;-65
2022/02/21 10:23:02;;;;;;;11.13;3.60;;;;;;;;;;5058122;28;20031;-64
2022/02/21 10:25:54;;;;;;;10.48;3.50;;;;;;;;;;5047346;28;20021;-68
2022/02/21 10:28:42;;;;;;;8.40;3.72;;;;;;;;;;5039739;28;20031;-66
2022/02/21 10:31:28;;;;;;;9.65;3.35;;;;;;;;;;5051465;28;20561;-66
2022/02/21 10:34:13;;;;;;;10.75;3.45;;;;;;;;;;5055120;28;20049;-65
2022/02/21 10:36:59;;;;;;;15.32;4.10;;;;;;;;;;5038691;28;20027;-68
2022/02/21 10:39:44;;;;;;;10.60;3.78;;;;;;;;;;5059373;28;20371;-70
2022/02/21 10:42:32;;;;;;;9.98;4.43;;;;;;;;;;5038985;28;20123;-69
2022/02/21 10:45:17;;;;;;;8.55;4.68;;;;;;;;;;5051379;28;20166;-69
2022/02/21 10:48:04;;;;;;;13.98;4.90;;;;;;;;;;5056376;28;20048;-69
2022/02/21 10:50:53;;;;;;;8.60;4.65;;;;;;;;;;5041054;28;20111;-68
2022/02/21 10:53:44;;;;;;;11.13;3.47;;;;;;;;;;5043945;28;20064;-67
2022/02/21 10:56:40;;;;;;;5.93;2.22;;;;;;;;;;5066448;28;20085;-71
2022/02/21 10:59:30;;;;;;;8.13;2.55;;;;;;;;;;5067387;28;20052;-70
2022/02/21 11:02:16;;;;;;;9.50;2.55;;;;;;;;;;5053405;28;20158;-70
2022/02/21 11:05:01;;;;;;;8.35;2.60;;;;;;;;;;5046193;28;20033;-69
2022/02/21 11:07:47;;;;;;;7.03;2.53;;;;;;;;;;5065704;28;20052;-70
2022/02/21 11:10:33;;;;;;;10.70;2.70;;;;;;;;;;5068069;28;20036;-72
2022/02/21 11:13:19;;;;;;;11.57;2.75;;;;;;;;;;5056603;28;20032;-68
2022/02/21 11:16:05;;;;;;;10.18;2.08;;;;;;;;;;5070672;28;20020;-67
2022/02/21 11:18:50;;;;;;;8.10;2.83;;;;;;;;;;5047302;28;20119;-65
2022/02/21 11:21:36;;;;;;;6.57;2.10;;;;;;;;;;5060201;28;20024;-68
2022/02/21 11:24:26;;;;;;;6.07;2.50;;;;;;;;;;5064548;28;20028;-67
2022/02/21 11:27:24;;;;;;;7.20;2.13;;;;;;;;;;5065807;28;20023;-68
2022/02/21 11:30:09;;;;;;;10.38;2.42;;;;;;;;;;5068425;28;20387;-65
2022/02/21 11:33:07;;;;;;;8.88;2.75;;;;;;;;;;5064861;28;20402;-71
2022/02/21 11:36:12;;;;;;;10.15;2.47;;;;;;;;;;5087415;28;20086;-66
2022/02/21 11:38:58;;;;;;;7.20;2.40;;;;;;;;;;5069975;28;20030;-67
2022/02/21 11:41:43;;;;;;;9.05;2.40;;;;;;;;;;5065108;28;20116;-65
2022/02/21 11:44:28;;;;;;;9.70;2.55;;;;;;;;;;5064451;28;20020;-64
2022/02/21 11:47:32;;;;;;;13.25;2.78;;;;;;;;;;5068084;28;20077;-65
2022/02/21 11:50:18;;;;;;;7.72;2.58;;;;;;;;;;5068636;28;20016;-64
2022/02/21 11:53:22;;;;;;;8.23;2.47;;;;;;;;;;5066018;28;20020;-59
2022/02/21 11:56:08;;;;;;;11.10;2.53;;;;;;;;;;5061444;28;20523;-67
2022/02/21 11:58:53;;;;;;;9.68;2.90;;;;;;;;;;5068938;28;20023;-69
2022/02/21 12:01:46;;;;;;;7.18;2.00;;;;;;;;;;5065291;28;20051;-64
2022/02/21 12:04:50;;;;;;;7.63;2.58;;;;;;;;;;5075742;28;20545;-70
2022/02/21 12:07:36;;;;;;;9.20;2.15;;;;;;;;;;5066853;28;20414;-74
2022/02/21 12:10:22;;;;;;;8.73;2.63;;;;;;;;;;5068052;28;20072;-74
2022/02/21 12:13:10;;;;;;;5.53;2.55;;;;;;;;;;5063357;28;20497;-79
2022/02/21 12:16:03;;;;;;;4.05;1.60;;;;;;;;;;5064048;28;20028;-67
2022/02/21 12:18:50;;;;;;;8.60;2.30;;;;;;;;;;5062837;28;20058;-67
2022/02/21 12:21:37;;;;;;;7.18;2.53;;;;;;;;;;5067702;28;20107;-66
2022/02/21 12:24:22;;;;;;;5.15;1.90;;;;;;;;;;5062515;28;20020;-65
2022/02/21 12:27:12;;;;;;;5.88;1.80;;;;;;;;;;5062894;28;20036;-68
2022/02/21 12:29:57;;;;;;;10.50;2.17;;;;;;;;;;5058428;28;20023;-68
2022/02/21 12:32:42;;;;;;;4.78;1.52;;;;;;;;;;5067295;28;20044;-66
2022/02/21 12:35:28;;;;;;;5.70;1.80;;;;;;;;;;5066838;28;20085;-67
2022/02/21 12:38:14;;;;;;;7.32;2.03;;;;;;;;;;5065506;28;20047;-66
2022/02/21 12:41:19;;;;;;;5.53;1.52;;;;;;;;;;5066979;28;20030;-67
2022/02/21 12:44:05;;;;;;;8.43;1.80;;;;;;;;;;5064634;28;20030;-68
2022/02/21 12:46:54;;;;;;;8.60;2.33;;;;;;;;;;5066793;28;20085;-68
2022/02/21 12:49:47;;;;;;;8.05;2.40;;;;;;;;;;5064925;28;20486;-69
2022/02/21 12:52:32;;;;;;;8.40;1.73;;;;;;;;;;5066160;28;20039;-70
2022/02/21 12:55:18;;;;;;;6.95;2.03;;;;;;;;;;5054324;28;20043;-71
2022/02/21 12:58:08;;;;;;;8.70;2.05;;;;;;;;;;5067779;28;20025;-69
2022/02/21 13:00:54;;;;;;;7.55;1.92;;;;;;;;;;5050413;28;20107;-72
2022/02/21 13:03:39;;;;;;;6.90;2.53;;;;;;;;;;5069969;28;20017;-69
2022/02/21 13:06:25;;;;;;;6.93;1.65;;;;;;;;;;5067937;28;20559;-64
2022/02/21 13:09:11;;;;;;;9.60;3.40;;;;;;;;;;5064460;28;20031;-70
2022/02/21 13:11:56;;;;;;;3.70;1.65;;;;;;;;;;5052963;28;20259;-70
2022/02/21 13:14:42;;;;;;;3.55;1.77;;;;;;;;;;5065359;28;20036;-73
2022/02/21 13:17:30;;;;;;;5.40;1.55;;;;;;;;;;5061316;28;20024;-70
2022/02/21 13:20:18;;;;;;;4.97;1.83;;;;;;;;;;5080675;28;20056;-75
2022/02/21 13:23:03;;;;;;;8.90;2.00;;;;;;;;;;5050916;28;20047;-65
2022/02/21 13:25:48;;;;;;;3.67;1.45;;;;;;;;;;5062242;28;20498;-66
2022/02/21 13:28:33;;;;;;;6.80;2.47;;;;;;;;;;5069613;28;20020;-66
2022/02/21 13:31:19;;;;;;;6.82;1.90;;;;;;;;;;5065855;28;20086;-65
2022/02/21 13:34:04;;;;;;;6.32;1.45;;;;;;;;;;5066090;28;20051;-65
2022/02/21 13:36:49;;;;;;;4.32;1.92;;;;;;;;;;5048195;28;20028;-65
2022/02/21 13:39:37;;;;;;;6.43;1.70;;;;;;;;;;5066867;28;20031;-66
2022/02/21 13:42:30;;;;;;;4.65;1.50;;;;;;;;;;5068226;28;20057;-65
2022/02/21 13:45:20;;;;;;;4.65;1.38;;;;;;;;;;5068222;28;20035;-69
2022/02/21 13:48:09;;;;;;;8.30;1.80;;;;;;;;;;5061022;28;20039;-67
2022/02/21 13:50:55;;;;;;;5.88;1.38;;;;;;;;;;5050651;28;20028;-67
2022/02/21 13:53:40;;;;;;;6.85;2.03;;;;;;;;;;5068089;28;20043;-68
2022/02/21 13:56:25;;;;;;;7.63;1.40;;;;;;;;;;5076498;28;20062;-67
2022/02/21 13:59:11;;;;;;;5.95;2.25;;;;;;;;;;5058298;28;20522;-70
2022/02/21 14:01:56;;;;;;;4.03;1.60;;;;;;;;;;5068659;28;20016;-76
2022/02/21 14:04:41;;;;;;;6.88;1.67;;;;;;;;;;5064280;28;20093;-73
2022/02/21 14:07:27;;;;;;;2.92;1.65;;;;;;;;;;5066169;28;20309;-75
2022/02/21 14:10:14;;;;;;;5.35;1.30;;;;;;;;;;5065012;28;20472;-74
2022/02/21 14:13:03;;;;;;;3.65;1.35;;;;;;;;;;5049210;28;20549;-74
2022/02/21 14:15:50;;;;;;;5.43;1.40;;;;;;;;;;5067028;28;20530;-72
2022/02/21 14:18:36;;;;;;;6.03;1.83;;;;;;;;;;5065568;28;20044;-68
2022/02/21 14:21:21;;;;;;;5.30;1.52;;;;;;;;;;5060705;28;20148;-69
2022/02/21 14:24:06;;;;;;;5.38;1.73;;;;;;;;;;5064744;28;20074;-70
2022/02/21 14:26:52;;;;;;;3.35;1.45;;;;;;;;;;5045100;28;20034;-68
2022/02/21 14:29:37;;;;;;;6.22;2.20;;;;;;;;;;5064253;28;20028;-69
2022/02/21 14:32:22;;;;;;;4.95;1.70;;;;;;;;;;5065446;28;20614;-71
2022/02/21 14:35:08;;;;;;;9.18;1.73;;;;;;;;;;5064896;28;20388;-68
2022/02/21 14:37:53;;;;;;;7.93;1.70;;;;;;;;;;5065585;28;20395;-63
2022/02/21 14:40:40;;;;;;;8.27;2.47;;;;;;;;;;5050365;28;20077;-68
2022/02/21 14:43:25;;;;;;;5.22;1.33;;;;;;;;;;5055352;28;20040;-68
2022/02/21 14:46:13;;;;;;;7.45;2.90;;;;;;;;;;5085175;28;20064;-68
2022/02/21 14:48:59;;;;;;;8.32;2.20;;;;;;;;;;5079896;28;20479;-64
2022/02/21 14:51:45;;;;;;;8.57;2.42;;;;;;;;;;5076096;28;20116;-64
2022/02/21 14:54:31;;;;;;;7.68;1.80;;;;;;;;;;5055414;28;20039;-64
2022/02/21 14:57:16;;;;;;;7.97;2.00;;;;;;;;;;5065991;28;20082;-62
2022/02/21 15:00:02;;;;;;;9.73;2.13;;;;;;;;;;5066944;28;20422;-70
2022/02/21 15:02:48;;;;;;;7.72;1.73;;;;;;;;;;5064220;28;20032;-69
2022/02/21 15:05:33;;;;;;;5.50;1.55;;;;;;;;;;5064566;28;20367;-70
2022/02/21 15:08:18;;;;;;;6.90;1.65;;;;;;;;;;5066116;28;20421;-73
2022/02/21 15:11:03;;;;;;;8.57;2.30;;;;;;;;;;5063025;28;20024;-68
2022/02/21 15:13:49;;;;;;;9.65;2.10;;;;;;;;;;5071794;28;20035;-68
2022/02/21 15:16:34;;;;;;;7.30;1.88;;;;;;;;;;5065917;28;20028;-67
2022/02/21 15:19:19;;;;;;;4.63;1.60;;;;;;;;;;5042110;28;20056;-66
2022/02/21 15:22:06;;;;;;;7.80;1.60;;;;;;;;;;5066874;28;20372;-68
2022/02/21 15:24:51;;;;;;;4.18;1.50;;;;;;;;;;5065890;28;20422;-66
2022/02/21 15:27:36;;;;;;;5.18;1.42;;;;;;;;;;5067384;28;20027;-67
2022/02/21 15:30:21;;;;;;;7.43;1.45;;;;;;;;;;5064940;28;20036;-66
2022/02/21 15:33:07;;;;;;;5.32;2.58;;;;;;;;;;5059588;28;20074;-69
2022/02/21 15:35:52;;;;;;;9.02;1.58;;;;;;;;;;5052977;28;20074;-68
2022/02/21 15:38:38;;;;;;;12.95;2.83;;;;;;;;;;5052067;28;20107;-68
2022/02/21 15:41:23;;;;;;;5.13;1.80;;;;;;;;;;5057685;28;20020;-66
2022/02/21 15:44:08;;;;;;;9.68;1.75;;;;;;;;;;5046387;28;20496;-66
2022/02/21 15:46:54;;;;;;;6.57;1.55;;;;;;;;;;5062889;28;20051;-67
2022/02/21 15:49:39;;;;;;;3.88;1.45;;;;;;;;;;5063826;28;20036;-72
2022/02/21 15:52:25;;;;;;;5.20;2.33;;;;;;;;;;5060659;28;20067;-68
2022/02/21 15:55:10;;;;;;;4.80;1.60;;;;;;;;;;5061957;28;20483;-68
2022/02/21 15:57:55;;;;;;;9.02;1.90;;;;;;;;;;5060636;28;20031;-70
2022/02/21 16:00:40;;;;;;;8.73;1.70;;;;;;;;;;5059086;28;20113;-68
2022/02/21 16:03:25;;;;;;;3.60;1.10;;;;;;;;;;5050379;28;20032;-68
2022/02/21 16:06:11;;;;;;;7.82;1.55;;;;;;;;;;5050763;28;20082;-66
2022/02/21 16:08:56;;;;;;;6.68;1.38;;;;;;;;;;5056848;28;20020;-73
2022/02/21 16:11:41;;;;;;;3.90;1.08;;;;;;;;;;5067223;28;20021;-70
2022/02/21 16:14:26;;;;;;;5.22;1.63;;;;;;;;;;5054996;28;20487;-72
2022/02/21 16:17:12;;;;;;;6.53;1.60;;;;;;;;;;5057237;28;20096;-70
2022/02/21 16:19:57;;;;;;;5.90;1.48;;;;;;;;;;5070430;28;20115;-69
2022/02/21 16:22:42;;;;;;;6.40;1.20;;;;;;;;;;5069315;28;20028;-69
2022/02/21 16:25:27;;;;;;;6.85;1.73;;;;;;;;;;5067991;28;20096;-67
2022/02/21 16:28:13;;;;;;;3.92;1.48;;;;;;;;;;5059103;28;20089;-71
2022/02/21 16:30:58;;;;;;;3.53;1.50;;;;;;;;;;5061564;28;20078;-71
2022/02/21 16:33:43;;;;;;;3.53;1.00;;;;;;;;;;5054545;28;20654;-71